sensor_id;sensor_type;location;lat;lon;timestamp;pressure;altitude;pressure_sealevel;temperature;humidity
8641;BME280;4358;42.100;25.222;2023-04-10T00:01:08;100266.00;;;10.05;95.68
8641;BME280;4358;42.100;25.222;2023-04-10T00:03:35;100274.06;;;9.74;98.80
8641;BME280;4358;42.100;25.222;2023-04-10T00:06:03;100277.25;;;9.33;100.00
8641;BME280;4358;42.100;25.222;2023-04-10T00:08:30;100271.03;;;9.03;100.00
8641;BME280;4358;42.100;25.222;2023-04-10T00:10:58;100267.75;;;8.82;100.00
8641;BME280;4358;42.100;25.222;2023-04-10T00:13:25;100262.34;;;8.68;100.00
8641;BME280;4358;42.100;25.222;2023-04-10T00:15:52;100264.94;;;8.18;100.00
8641;BME280;4358;42.100;25.222;2023-04-10T00:18:18;100255.63;;;7.94;100.00
8641;BME280;4358;42.100;25.222;2023-04-10T00:20:45;100270.53;;;7.78;100.00
8641;BME280;4358;42.100;25.222;2023-04-10T00:23:12;100262.94;;;7.89;100.00
8641;BME280;4358;42.100;25.222;2023-04-10T00:25:39;100264.22;;;7.80;100.00
8641;BME280;4358;42.100;25.222;2023-04-10T00:28:07;100259.34;;;7.73;100.00
8641;BME280;4358;42.100;25.222;2023-04-10T00:30:34;100258.50;;;7.36;100.00
8641;BME280;4358;42.100;25.222;2023-04-10T00:33:01;100252.94;;;7.23;100.00
8641;BME280;4358;42.100;25.222;2023-04-10T00:35:27;100255.38;;;7.28;100.00
8641;BME280;4358;42.100;25.222;2023-04-10T00:37:54;100253.50;;;7.30;100.00
8641;BME280;4358;42.100;25.222;2023-04-10T00:40:22;100244.22;;;7.40;100.00
8641;BME280;4358;42.100;25.222;2023-04-10T00:42:49;100247.66;;;7.42;100.00
8641;BME280;4358;42.100;25.222;2023-04-10T00:45:17;100250.41;;;7.58;100.00
8641;BME280;4358;42.100;25.222;2023-04-10T00:47:44;100250.25;;;7.78;100.00
8641;BME280;4358;42.100;25.222;2023-04-10T00:50:11;100241.00;;;7.87;100.00
8641;BME280;4358;42.100;25.222;2023-04-10T00:52:37;100237.53;;;7.69;100.00
8641;BME280;4358;42.100;25.222;2023-04-10T00:55:05;100243.56;;;7.71;100.00
8641;BME280;4358;42.100;25.222;2023-04-10T00:57:33;100235.00;;;7.66;100.00
8641;BME280;4358;42.100;25.222;2023-04-10T00:59:59;100234.94;;;7.68;100.00
8641;BME280;4358;42.100;25.222;2023-04-10T01:02:28;100230.59;;;7.84;100.00
8641;BME280;4358;42.100;25.222;2023-04-10T01:04:55;100228.28;;;7.78;100.00
8641;BME280;4358;42.100;25.222;2023-04-10T01:07:37;100184.81;;;7.49;100.00
8641;BME280;4358;42.100;25.222;2023-04-10T01:10:14;100222.28;;;7.74;100.00
8641;BME280;4358;42.100;25.222;2023-04-10T01:12:52;100219.09;;;7.85;100.00
8641;BME280;4358;42.100;25.222;2023-04-10T01:15:22;100222.13;;;7.94;100.00
8641;BME280;4358;42.100;25.222;2023-04-10T01:17:56;100218.41;;;7.98;100.00
8641;BME280;4358;42.100;25.222;2023-04-10T01:20:29;100218.63;;;7.94;100.00
8641;BME280;4358;42.100;25.222;2023-04-10T01:23:08;100225.31;;;7.84;100.00
8641;BME280;4358;42.100;25.222;2023-04-10T01:25:40;100220.56;;;7.73;100.00
8641;BME280;4358;42.100;25.222;2023-04-10T01:28:29;100219.84;;;7.70;100.00
8641;BME280;4358;42.100;25.222;2023-04-10T01:31:01;100216.91;;;7.58;100.00
8641;BME280;4358;42.100;25.222;2023-04-10T01:33:37;100225.13;;;7.52;100.00
8641;BME280;4358;42.100;25.222;2023-04-10T01:36:07;100222.63;;;7.49;100.00
8641;BME280;4358;42.100;25.222;2023-04-10T01:38:38;100221.88;;;7.47;100.00
8641;BME280;4358;42.100;25.222;2023-04-10T01:41:07;100222.94;;;7.43;100.00
8641;BME280;4358;42.100;25.222;2023-04-10T01:43:35;100217.69;;;7.24;100.00
8641;BME280;4358;42.100;25.222;2023-04-10T01:46:05;100214.66;;;7.15;100.00
8641;BME280;4358;42.100;25.222;2023-04-10T01:48:33;100208.41;;;6.99;100.00
8641;BME280;4358;42.100;25.222;2023-04-10T01:51:02;100212.00;;;6.96;100.00
8641;BME280;4358;42.100;25.222;2023-04-10T01:53:30;100215.75;;;6.92;100.00
8641;BME280;4358;42.100;25.222;2023-04-10T01:55:57;100208.19;;;6.85;100.00
8641;BME280;4358;42.100;25.222;2023-04-10T01:58:25;100209.47;;;6.76;100.00
8641;BME280;4358;42.100;25.222;2023-04-10T02:00:52;100214.59;;;6.60;100.00
8641;BME280;4358;42.100;25.222;2023-04-10T02:03:20;100208.97;;;6.29;100.00
8641;BME280;4358;42.100;25.222;2023-04-10T02:05:54;100209.28;;;6.03;100.00
8641;BME280;4358;42.100;25.222;2023-04-10T02:08:25;100210.75;;;5.89;100.00
8641;BME280;4358;42.100;25.222;2023-04-10T02:11:01;100203.22;;;5.80;100.00
8641;BME280;4358;42.100;25.222;2023-04-10T02:13:33;100207.00;;;5.73;100.00
8641;BME280;4358;42.100;25.222;2023-04-10T02:16:03;100196.34;;;5.76;100.00
8641;BME280;4358;42.100;25.222;2023-04-10T02:18:34;100181.78;;;5.89;100.00
8641;BME280;4358;42.100;25.222;2023-04-10T02:21:02;100183.72;;;6.05;100.00
8641;BME280;4358;42.100;25.222;2023-04-10T02:23:29;100206.34;;;6.29;100.00
8641;BME280;4358;42.100;25.222;2023-04-10T02:25:56;100203.19;;;6.41;100.00
8641;BME280;4358;42.100;25.222;2023-04-10T02:28:23;100211.53;;;6.51;100.00
8641;BME280;4358;42.100;25.222;2023-04-10T02:30:50;100215.00;;;6.51;100.00
8641;BME280;4358;42.100;25.222;2023-04-10T02:33:17;100209.59;;;6.15;100.00
8641;BME280;4358;42.100;25.222;2023-04-10T02:35:45;100213.50;;;6.07;100.00
8641;BME280;4358;42.100;25.222;2023-04-10T02:38:12;100205.22;;;5.95;100.00
8641;BME280;4358;42.100;25.222;2023-04-10T02:40:39;100209.38;;;6.01;100.00
8641;BME280;4358;42.100;25.222;2023-04-10T02:43:05;100202.97;;;6.07;100.00
8641;BME280;4358;42.100;25.222;2023-04-10T02:45:32;100207.84;;;5.95;100.00
8641;BME280;4358;42.100;25.222;2023-04-10T02:47:59;100203.09;;;6.04;100.00
8641;BME280;4358;42.100;25.222;2023-04-10T02:50:26;100200.69;;;6.18;100.00
8641;BME280;4358;42.100;25.222;2023-04-10T02:52:55;100188.47;;;6.17;100.00
8641;BME280;4358;42.100;25.222;2023-04-10T02:55:22;100205.44;;;6.30;100.00
8641;BME280;4358;42.100;25.222;2023-04-10T02:57:49;100207.53;;;6.42;100.00
8641;BME280;4358;42.100;25.222;2023-04-10T03:00:16;100199.91;;;6.55;100.00
8641;BME280;4358;42.100;25.222;2023-04-10T03:02:44;100192.09;;;6.53;100.00
8641;BME280;4358;42.100;25.222;2023-04-10T03:05:11;100198.41;;;6.49;100.00
8641;BME280;4358;42.100;25.222;2023-04-10T03:07:38;100206.72;;;6.40;100.00
8641;BME280;4358;42.100;25.222;2023-04-10T03:10:07;100207.81;;;6.55;100.00
8641;BME280;4358;42.100;25.222;2023-04-10T03:12:34;100208.19;;;6.66;100.00
8641;BME280;4358;42.100;25.222;2023-04-10T03:15:01;100204.78;;;6.64;100.00
8641;BME280;4358;42.100;25.222;2023-04-10T03:17:28;100192.84;;;6.36;100.00
8641;BME280;4358;42.100;25.222;2023-04-10T03:19:55;100223.84;;;6.50;100.00
8641;BME280;4358;42.100;25.222;2023-04-10T03:22:22;100224.44;;;6.57;100.00
8641;BME280;4358;42.100;25.222;2023-04-10T03:24:49;100224.41;;;6.38;100.00
8641;BME280;4358;42.100;25.222;2023-04-10T03:27:18;100219.56;;;5.88;100.00
8641;BME280;4358;42.100;25.222;2023-04-10T03:29:45;100205.19;;;5.75;100.00
8641;BME280;4358;42.100;25.222;2023-04-10T03:32:12;100214.41;;;5.65;100.00
8641;BME280;4358;42.100;25.222;2023-04-10T03:34:39;100208.63;;;5.55;100.00
8641;BME280;4358;42.100;25.222;2023-04-10T03:37:05;100208.56;;;5.57;100.00
8641;BME280;4358;42.100;25.222;2023-04-10T03:39:32;100208.31;;;5.63;100.00
8641;BME280;4358;42.100;25.222;2023-04-10T03:42:00;100205.56;;;5.66;100.00
8641;BME280;4358;42.100;25.222;2023-04-10T03:44:28;100204.97;;;5.80;100.00
8641;BME280;4358;42.100;25.222;2023-04-10T03:46:55;100203.88;;;5.85;100.00
8641;BME280;4358;42.100;25.222;2023-04-10T03:49:22;100212.19;;;5.97;100.00
8641;BME280;4358;42.100;25.222;2023-04-10T03:51:49;100212.84;;;6.02;100.00
8641;BME280;4358;42.100;25.222;2023-04-10T03:54:16;100214.94;;;5.93;100.00
8641;BME280;4358;42.100;25.222;2023-04-10T03:56:42;100217.19;;;6.03;100.00
8641;BME280;4358;42.100;25.222;2023-04-10T03:59:09;100220.41;;;6.09;100.00
8641;BME280;4358;42.100;25.222;2023-04-10T04:01:37;100221.13;;;6.13;100.00
8641;BME280;4358;42.100;25.222;2023-04-10T04:04:04;100211.59;;;6.10;100.00
8641;BME280;4358;42.100;25.222;2023-04-10T04:06:31;100215.34;;;6.05;100.00
8641;BME280;4358;42.100;25.222;2023-04-10T04:08:58;100216.25;;;6.04;100.00
8641;BME280;4358;42.100;25.222;2023-04-10T04:11:25;100225.41;;;6.15;100.00
8641;BME280;4358;42.100;25.222;2023-04-10T04:13:52;100222.31;;;6.26;100.00
8641;BME280;4358;42.100;25.222;2023-04-10T04:16:19;100234.81;;;6.41;100.00
8641;BME280;4358;42.100;25.222;2023-04-10T04:18:47;100229.97;;;6.32;100.00
8641;BME280;4358;42.100;25.222;2023-04-10T04:21:14;100219.03;;;6.01;100.00
8641;BME280;4358;42.100;25.222;2023-04-10T04:23:40;100225.81;;;5.86;100.00
8641;BME280;4358;42.100;25.222;2023-04-10T04:26:07;100231.00;;;6.08;100.00
8641;BME280;4358;42.100;25.222;2023-04-10T04:28:34;100236.09;;;6.32;100.00
8641;BME280;4358;42.100;25.222;2023-04-10T04:31:01;100231.25;;;6.42;100.00
8641;BME280;4358;42.100;25.222;2023-04-10T04:33:28;100217.84;;;6.08;100.00
8641;BME280;4358;42.100;25.222;2023-04-10T04:35:56;100231.31;;;6.02;100.00
8641;BME280;4358;42.100;25.222;2023-04-10T04:38:23;100234.03;;;6.19;100.00
8641;BME280;4358;42.100;25.222;2023-04-10T04:40:50;100197.28;;;6.16;100.00
8641;BME280;4358;42.100;25.222;2023-04-10T04:43:17;100239.91;;;6.64;100.00
8641;BME280;4358;42.100;25.222;2023-04-10T04:45:44;100233.28;;;6.74;100.00
8641;BME280;4358;42.100;25.222;2023-04-10T04:48:11;100237.28;;;6.64;100.00
8641;BME280;4358;42.100;25.222;2023-04-10T04:50:39;100229.00;;;6.53;100.00
8641;BME280;4358;42.100;25.222;2023-04-10T04:53:07;100232.66;;;6.49;100.00
8641;BME280;4358;42.100;25.222;2023-04-10T04:55:34;100227.53;;;6.46;100.00
8641;BME280;4358;42.100;25.222;2023-04-10T04:58:01;100231.22;;;6.62;100.00
8641;BME280;4358;42.100;25.222;2023-04-10T05:00:28;100237.56;;;6.96;100.00
8641;BME280;4358;42.100;25.222;2023-04-10T05:02:55;100239.09;;;7.18;100.00
8641;BME280;4358;42.100;25.222;2023-04-10T05:05:22;100217.28;;;7.15;100.00
8641;BME280;4358;42.100;25.222;2023-04-10T05:07:49;100232.41;;;7.30;100.00
8641;BME280;4358;42.100;25.222;2023-04-10T05:10:17;100231.94;;;7.39;100.00
8641;BME280;4358;42.100;25.222;2023-04-10T05:12:44;100243.34;;;7.58;100.00
8641;BME280;4358;42.100;25.222;2023-04-10T05:15:11;100253.38;;;7.86;100.00
8641;BME280;4358;42.100;25.222;2023-04-10T05:17:37;100248.47;;;8.13;100.00
8641;BME280;4358;42.100;25.222;2023-04-10T05:20:05;100244.72;;;8.17;100.00
8641;BME280;4358;42.100;25.222;2023-04-10T05:22:32;100245.69;;;8.16;100.00
8641;BME280;4358;42.100;25.222;2023-04-10T05:24:59;100238.03;;;8.27;100.00
8641;BME280;4358;42.100;25.222;2023-04-10T05:27:28;100241.75;;;8.58;100.00
8641;BME280;4358;42.100;25.222;2023-04-10T05:29:54;100247.94;;;8.74;100.00
8641;BME280;4358;42.100;25.222;2023-04-10T05:32:22;100243.50;;;9.06;100.00
8641;BME280;4358;42.100;25.222;2023-04-10T05:34:49;100247.28;;;9.17;100.00
8641;BME280;4358;42.100;25.222;2023-04-10T05:37:16;100247.28;;;9.17;100.00
8641;BME280;4358;42.100;25.222;2023-04-10T05:39:42;100251.34;;;8.76;100.00
8641;BME280;4358;42.100;25.222;2023-04-10T05:42:09;100250.44;;;8.60;100.00
8641;BME280;4358;42.100;25.222;2023-04-10T05:44:37;100252.66;;;8.52;100.00
8641;BME280;4358;42.100;25.222;2023-04-10T05:47:04;100250.28;;;8.63;100.00
8641;BME280;4358;42.100;25.222;2023-04-10T05:49:31;100249.59;;;8.59;100.00
8641;BME280;4358;42.100;25.222;2023-04-10T05:51:58;100240.59;;;8.79;100.00
8641;BME280;4358;42.100;25.222;2023-04-10T05:54:25;100247.44;;;8.99;100.00
8641;BME280;4358;42.100;25.222;2023-04-10T05:56:52;100245.56;;;9.01;100.00
8641;BME280;4358;42.100;25.222;2023-04-10T05:59:19;100239.19;;;9.20;100.00
8641;BME280;4358;42.100;25.222;2023-04-10T06:01:47;100246.06;;;9.39;100.00
8641;BME280;4358;42.100;25.222;2023-04-10T06:04:13;100239.19;;;9.66;100.00
8641;BME280;4358;42.100;25.222;2023-04-10T06:06:40;100237.13;;;9.71;100.00
8641;BME280;4358;42.100;25.222;2023-04-10T06:09:07;100236.59;;;9.80;100.00
8641;BME280;4358;42.100;25.222;2023-04-10T06:11:34;100244.63;;;9.94;100.00
8641;BME280;4358;42.100;25.222;2023-04-10T06:14:01;100248.47;;;10.18;100.00
8641;BME280;4358;42.100;25.222;2023-04-10T06:16:27;100242.91;;;10.37;100.00
8641;BME280;4358;42.100;25.222;2023-04-10T06:18:57;100246.72;;;10.61;100.00
8641;BME280;4358;42.100;25.222;2023-04-10T06:21:24;100247.28;;;10.81;100.00
8641;BME280;4358;42.100;25.222;2023-04-10T06:23:50;100250.13;;;10.92;100.00
8641;BME280;4358;42.100;25.222;2023-04-10T06:26:17;100244.88;;;11.04;100.00
8641;BME280;4358;42.100;25.222;2023-04-10T06:28:44;100247.53;;;11.19;100.00
8641;BME280;4358;42.100;25.222;2023-04-10T06:31:11;100252.03;;;11.31;100.00
8641;BME280;4358;42.100;25.222;2023-04-10T06:33:38;100245.38;;;11.38;100.00
8641;BME280;4358;42.100;25.222;2023-04-10T06:36:07;100248.97;;;11.51;100.00
8641;BME280;4358;42.100;25.222;2023-04-10T06:38:34;100252.59;;;11.63;100.00
8641;BME280;4358;42.100;25.222;2023-04-10T06:41:03;100257.25;;;11.73;100.00
8641;BME280;4358;42.100;25.222;2023-04-10T06:43:32;100255.69;;;11.83;100.00
8641;BME280;4358;42.100;25.222;2023-04-10T06:45:59;100253.72;;;11.73;100.00
8641;BME280;4358;42.100;25.222;2023-04-10T06:48:27;100253.06;;;11.69;100.00
8641;BME280;4358;42.100;25.222;2023-04-10T06:50:54;100253.28;;;11.66;100.00
8641;BME280;4358;42.100;25.222;2023-04-10T06:53:22;100251.94;;;11.73;100.00
8641;BME280;4358;42.100;25.222;2023-04-10T06:55:49;100260.59;;;11.89;100.00
8641;BME280;4358;42.100;25.222;2023-04-10T06:58:16;100256.78;;;11.94;100.00
8641;BME280;4358;42.100;25.222;2023-04-10T07:00:43;100248.50;;;11.98;96.60
8641;BME280;4358;42.100;25.222;2023-04-10T07:03:10;100265.50;;;11.96;97.71
8641;BME280;4358;42.100;25.222;2023-04-10T07:05:37;100264.88;;;12.05;94.66
8641;BME280;4358;42.100;25.222;2023-04-10T07:08:04;100265.34;;;12.11;90.54
8641;BME280;4358;42.100;25.222;2023-04-10T07:10:33;100262.19;;;12.19;92.55
8641;BME280;4358;42.100;25.222;2023-04-10T07:13:00;100264.06;;;12.17;86.57
8641;BME280;4358;42.100;25.222;2023-04-10T07:15:27;100257.25;;;12.13;90.50
8641;BME280;4358;42.100;25.222;2023-04-10T07:17:54;100252.78;;;12.26;89.71
8641;BME280;4358;42.100;25.222;2023-04-10T07:20:21;100253.69;;;12.39;90.24
8641;BME280;4358;42.100;25.222;2023-04-10T07:22:48;100251.75;;;12.54;87.98
8641;BME280;4358;42.100;25.222;2023-04-10T07:25:15;100256.88;;;12.69;87.58
8641;BME280;4358;42.100;25.222;2023-04-10T07:27:44;100251.31;;;12.85;85.51
8641;BME280;4358;42.100;25.222;2023-04-10T07:30:11;100254.69;;;13.00;84.19
8641;BME280;4358;42.100;25.222;2023-04-10T07:32:38;100249.53;;;13.09;84.34
8641;BME280;4358;42.100;25.222;2023-04-10T07:35:07;100250.53;;;13.21;83.12
8641;BME280;4358;42.100;25.222;2023-04-10T07:37:34;100254.22;;;13.31;81.22
8641;BME280;4358;42.100;25.222;2023-04-10T07:40:01;100242.50;;;13.34;80.09
8641;BME280;4358;42.100;25.222;2023-04-10T07:42:28;100246.31;;;13.30;79.09
8641;BME280;4358;42.100;25.222;2023-04-10T07:44:56;100239.84;;;13.34;77.85
8641;BME280;4358;42.100;25.222;2023-04-10T07:47:23;100248.16;;;13.53;76.33
8641;BME280;4358;42.100;25.222;2023-04-10T07:49:50;100246.63;;;13.62;75.44
8641;BME280;4358;42.100;25.222;2023-04-10T07:52:17;100246.13;;;13.80;75.13
8641;BME280;4358;42.100;25.222;2023-04-10T07:54:44;100247.53;;;13.97;73.60
8641;BME280;4358;42.100;25.222;2023-04-10T07:57:11;100245.13;;;14.05;73.05
8641;BME280;4358;42.100;25.222;2023-04-10T07:59:38;100242.09;;;14.10;72.54
8641;BME280;4358;42.100;25.222;2023-04-10T08:02:06;100240.25;;;13.99;69.65
8641;BME280;4358;42.100;25.222;2023-04-10T08:04:33;100247.84;;;14.16;68.53
8641;BME280;4358;42.100;25.222;2023-04-10T08:07:00;100237.69;;;14.32;68.36
8641;BME280;4358;42.100;25.222;2023-04-10T08:09:27;100235.00;;;14.21;67.79
8641;BME280;4358;42.100;25.222;2023-04-10T08:11:55;100233.59;;;14.39;68.23
8641;BME280;4358;42.100;25.222;2023-04-10T08:14:22;100230.94;;;14.51;66.69
8641;BME280;4358;42.100;25.222;2023-04-10T08:16:49;100232.16;;;14.58;67.33
8641;BME280;4358;42.100;25.222;2023-04-10T08:19:17;100229.97;;;14.52;67.60
8641;BME280;4358;42.100;25.222;2023-04-10T08:21:44;100233.88;;;14.59;67.94
8641;BME280;4358;42.100;25.222;2023-04-10T08:24:10;100226.56;;;14.61;68.06
8641;BME280;4358;42.100;25.222;2023-04-10T08:26:37;100237.97;;;14.52;68.52
8641;BME280;4358;42.100;25.222;2023-04-10T08:29:04;100235.56;;;14.60;68.03
8641;BME280;4358;42.100;25.222;2023-04-10T08:31:31;100236.41;;;14.60;66.30
8641;BME280;4358;42.100;25.222;2023-04-10T08:33:58;100232.66;;;14.74;65.92
8641;BME280;4358;42.100;25.222;2023-04-10T08:36:26;100231.34;;;14.79;66.66
8641;BME280;4358;42.100;25.222;2023-04-10T08:38:53;100234.22;;;14.76;65.94
8641;BME280;4358;42.100;25.222;2023-04-10T08:41:20;100226.34;;;14.86;66.54
8641;BME280;4358;42.100;25.222;2023-04-10T08:43:47;100207.03;;;14.94;65.68
8641;BME280;4358;42.100;25.222;2023-04-10T08:46:15;100223.66;;;14.97;66.86
8641;BME280;4358;42.100;25.222;2023-04-10T08:48:46;100217.97;;;15.02;66.91
8641;BME280;4358;42.100;25.222;2023-04-10T08:51:17;100223.91;;;14.94;65.85
8641;BME280;4358;42.100;25.222;2023-04-10T08:53:49;100220.28;;;14.95;65.54
8641;BME280;4358;42.100;25.222;2023-04-10T08:56:17;100212.16;;;14.86;66.99
8641;BME280;4358;42.100;25.222;2023-04-10T08:58:44;100220.88;;;14.88;68.68
8641;BME280;4358;42.100;25.222;2023-04-10T09:01:11;100218.22;;;14.65;69.75
8641;BME280;4358;42.100;25.222;2023-04-10T09:03:38;100222.94;;;14.62;68.66
8641;BME280;4358;42.100;25.222;2023-04-10T09:06:05;100216.13;;;14.58;68.28
8641;BME280;4358;42.100;25.222;2023-04-10T09:08:33;100215.22;;;14.35;70.98
8641;BME280;4358;42.100;25.222;2023-04-10T09:11:01;100216.31;;;14.32;71.93
8641;BME280;4358;42.100;25.222;2023-04-10T09:13:34;100213.38;;;14.24;72.57
8641;BME280;4358;42.100;25.222;2023-04-10T09:16:02;100207.31;;;14.22;77.32
8641;BME280;4358;42.100;25.222;2023-04-10T09:18:40;100199.31;;;14.22;80.42
8641;BME280;4358;42.100;25.222;2023-04-10T09:21:08;100198.06;;;14.15;83.80
8641;BME280;4358;42.100;25.222;2023-04-10T09:23:35;100207.06;;;14.14;84.36
8641;BME280;4358;42.100;25.222;2023-04-10T09:26:21;100209.16;;;14.22;82.81
8641;BME280;4358;42.100;25.222;2023-04-10T09:28:59;100203.88;;;14.09;79.08
8641;BME280;4358;42.100;25.222;2023-04-10T09:31:28;100204.66;;;14.22;82.67
8641;BME280;4358;42.100;25.222;2023-04-10T09:34:06;100196.66;;;14.33;82.57
8641;BME280;4358;42.100;25.222;2023-04-10T09:36:34;100200.34;;;14.44;81.75
8641;BME280;4358;42.100;25.222;2023-04-10T09:39:01;100203.63;;;14.47;81.08
8641;BME280;4358;42.100;25.222;2023-04-10T09:41:29;100203.25;;;14.40;81.03
8641;BME280;4358;42.100;25.222;2023-04-10T09:44:06;100200.19;;;14.34;77.49
8641;BME280;4358;42.100;25.222;2023-04-10T09:46:33;100201.31;;;14.43;80.79
8641;BME280;4358;42.100;25.222;2023-04-10T09:49:00;100197.91;;;14.40;77.69
8641;BME280;4358;42.100;25.222;2023-04-10T09:51:30;100181.84;;;14.29;78.86
8641;BME280;4358;42.100;25.222;2023-04-10T09:53:58;100196.03;;;14.30;79.86
8641;BME280;4358;42.100;25.222;2023-04-10T09:56:25;100194.69;;;14.24;80.64
8641;BME280;4358;42.100;25.222;2023-04-10T09:58:57;100194.13;;;14.32;82.13
8641;BME280;4358;42.100;25.222;2023-04-10T10:01:25;100200.53;;;14.29;79.40
8641;BME280;4358;42.100;25.222;2023-04-10T10:03:53;100192.81;;;14.37;80.49
8641;BME280;4358;42.100;25.222;2023-04-10T10:06:21;100200.22;;;14.45;80.45
8641;BME280;4358;42.100;25.222;2023-04-10T10:08:48;100187.66;;;14.34;79.45
8641;BME280;4358;42.100;25.222;2023-04-10T10:11:18;100190.16;;;14.37;80.16
8641;BME280;4358;42.100;25.222;2023-04-10T10:13:49;100195.69;;;14.23;80.92
8641;BME280;4358;42.100;25.222;2023-04-10T10:16:25;100188.88;;;14.30;81.00
8641;BME280;4358;42.100;25.222;2023-04-10T10:19:06;100184.50;;;14.29;82.59
8641;BME280;4358;42.100;25.222;2023-04-10T10:21:34;100185.78;;;14.36;83.02
8641;BME280;4358;42.100;25.222;2023-04-10T10:24:06;100185.66;;;14.38;83.48
8641;BME280;4358;42.100;25.222;2023-04-10T10:26:34;100184.19;;;14.34;85.62
8641;BME280;4358;42.100;25.222;2023-04-10T10:29:03;100176.06;;;14.47;83.94
8641;BME280;4358;42.100;25.222;2023-04-10T10:31:32;100177.88;;;14.46;83.63
8641;BME280;4358;42.100;25.222;2023-04-10T10:34:02;100186.63;;;14.37;83.16
8641;BME280;4358;42.100;25.222;2023-04-10T10:36:32;100153.69;;;14.25;84.10
8641;BME280;4358;42.100;25.222;2023-04-10T10:39:22;100180.06;;;14.41;85.04
8641;BME280;4358;42.100;25.222;2023-04-10T10:41:56;100174.25;;;14.47;86.30
8641;BME280;4358;42.100;25.222;2023-04-10T10:44:32;100174.25;;;14.47;87.81
8641;BME280;4358;42.100;25.222;2023-04-10T10:47:08;100178.00;;;14.45;88.28
8641;BME280;4358;42.100;25.222;2023-04-10T10:49:53;100163.19;;;14.40;87.17
8641;BME280;4358;42.100;25.222;2023-04-10T10:52:36;100167.56;;;14.41;88.66
8641;BME280;4358;42.100;25.222;2023-04-10T10:55:27;100173.34;;;14.35;90.47
8641;BME280;4358;42.100;25.222;2023-04-10T10:57:57;100163.88;;;14.20;87.98
8641;BME280;4358;42.100;25.222;2023-04-10T11:00:26;100159.47;;;14.08;90.70
8641;BME280;4358;42.100;25.222;2023-04-10T11:03:29;100165.59;;;14.21;92.38
8641;BME280;4358;42.100;25.222;2023-04-10T11:05:57;100164.34;;;14.14;93.36
8641;BME280;4358;42.100;25.222;2023-04-10T11:08:44;100160.72;;;14.15;90.58
8641;BME280;4358;42.100;25.222;2023-04-10T11:11:16;100160.72;;;14.15;88.68
8641;BME280;4358;42.100;25.222;2023-04-10T11:14:14;100158.66;;;14.08;91.05
8641;BME280;4358;42.100;25.222;2023-04-10T11:16:45;100146.41;;;14.16;97.60
8641;BME280;4358;42.100;25.222;2023-04-10T11:19:14;100157.81;;;14.29;96.23
8641;BME280;4358;42.100;25.222;2023-04-10T11:22:06;100149.31;;;14.35;94.28
8641;BME280;4358;42.100;25.222;2023-04-10T11:24:53;100147.31;;;14.39;89.82
8641;BME280;4358;42.100;25.222;2023-04-10T11:27:45;100145.94;;;14.45;93.51
8641;BME280;4358;42.100;25.222;2023-04-10T11:30:27;100149.31;;;14.35;95.00
8641;BME280;4358;42.100;25.222;2023-04-10T11:32:55;100143.50;;;14.30;95.07
8641;BME280;4358;42.100;25.222;2023-04-10T11:35:24;100143.91;;;14.37;93.85
8641;BME280;4358;42.100;25.222;2023-04-10T11:37:51;100135.75;;;14.27;93.40
8641;BME280;4358;42.100;25.222;2023-04-10T11:40:33;100124.56;;;14.22;95.66
8641;BME280;4358;42.100;25.222;2023-04-10T11:43:11;100128.69;;;14.15;94.26
8641;BME280;4358;42.100;25.222;2023-04-10T11:45:38;100133.50;;;13.99;98.17
8641;BME280;4358;42.100;25.222;2023-04-10T11:48:06;100128.50;;;13.83;99.56
8641;BME280;4358;42.100;25.222;2023-04-10T11:50:34;100128.56;;;13.60;100.00
8641;BME280;4358;42.100;25.222;2023-04-10T11:53:16;100112.69;;;13.58;100.00
8641;BME280;4358;42.100;25.222;2023-04-10T11:55:43;100126.06;;;13.69;100.00
8641;BME280;4358;42.100;25.222;2023-04-10T11:58:21;100120.34;;;13.74;100.00
8641;BME280;4358;42.100;25.222;2023-04-10T12:00:57;100107.75;;;13.65;100.00
8641;BME280;4358;42.100;25.222;2023-04-10T12:03:35;100101.94;;;13.71;100.00
8641;BME280;4358;42.100;25.222;2023-04-10T12:06:06;100095.72;;;13.59;100.00
8641;BME280;4358;42.100;25.222;2023-04-10T12:08:35;100091.81;;;13.52;100.00
8641;BME280;4358;42.100;25.222;2023-04-10T12:11:02;100085.41;;;13.54;100.00
8641;BME280;4358;42.100;25.222;2023-04-10T12:13:30;100087.31;;;13.52;100.00
8641;BME280;4358;42.100;25.222;2023-04-10T12:15:58;100081.28;;;13.62;100.00
8641;BME280;4358;42.100;25.222;2023-04-10T12:18:26;100083.00;;;13.63;100.00
8641;BME280;4358;42.100;25.222;2023-04-10T12:20:54;100076.69;;;13.64;100.00
8641;BME280;4358;42.100;25.222;2023-04-10T12:23:24;100077.91;;;13.60;100.00
8641;BME280;4358;42.100;25.222;2023-04-10T12:25:52;100076.66;;;13.52;100.00
8641;BME280;4358;42.100;25.222;2023-04-10T12:28:20;100067.22;;;13.48;100.00
8641;BME280;4358;42.100;25.222;2023-04-10T12:30:49;100065.06;;;13.65;100.00
8641;BME280;4358;42.100;25.222;2023-04-10T12:33:22;100059.88;;;13.74;100.00
8641;BME280;4358;42.100;25.222;2023-04-10T12:35:50;100049.91;;;13.65;100.00
8641;BME280;4358;42.100;25.222;2023-04-10T12:38:35;100057.09;;;13.76;100.00
8641;BME280;4358;42.100;25.222;2023-04-10T12:41:02;100049.69;;;13.79;100.00
8641;BME280;4358;42.100;25.222;2023-04-10T12:43:30;100048.09;;;13.77;100.00
8641;BME280;4358;42.100;25.222;2023-04-10T12:45:57;100050.09;;;13.97;100.00
8641;BME280;4358;42.100;25.222;2023-04-10T12:48:24;100055.16;;;14.00;100.00
8641;BME280;4358;42.100;25.222;2023-04-10T12:50:51;100041.81;;;13.89;100.00
8641;BME280;4358;42.100;25.222;2023-04-10T12:53:18;100040.09;;;13.88;100.00
8641;BME280;4358;42.100;25.222;2023-04-10T12:55:57;100040.59;;;13.93;100.00
8641;BME280;4358;42.100;25.222;2023-04-10T12:58:24;100036.00;;;13.95;100.00
8641;BME280;4358;42.100;25.222;2023-04-10T13:00:53;100039.63;;;13.94;99.87
8641;BME280;4358;42.100;25.222;2023-04-10T13:03:21;100031.63;;;13.94;99.45
8641;BME280;4358;42.100;25.222;2023-04-10T13:05:47;100036.22;;;14.03;98.84
8641;BME280;4358;42.100;25.222;2023-04-10T13:08:14;100026.78;;;14.21;98.29